Time;durP1;ratioP1;P1;durP2;ratioP2;P2;SDS_P1;SDS_P2;PMS_P1;PMS_P2;Temp;Humidity;BMP_temperature;BMP_pressure;BME280_temperature;BME280_humidity;BME280_pressure;Samples;Min_cycle;Max_cycle;Signal;HPM_P1;HPM_P2
2022/10/23 00:01:34;;;;;;;1.23;0.87;;;15.40;99.90;16.60;101068.00;;;;5074466;28;20210;-73
2022/10/23 00:04:21;;;;;;;0.30;0.30;;;15.40;99.90;16.90;101063.00;;;;5074637;28;20734;-73
2022/10/23 00:07:01;;;;;;;0.47;0.47;;;15.60;99.90;16.80;101039.00;;;;5074418;28;20181;-74
2022/10/23 00:09:36;;;;;;;0.40;0.40;;;15.50;99.90;16.60;101001.00;;;;5074186;28;20197;-73
2022/10/23 00:12:08;;;;;;;0.50;0.50;;;15.40;99.90;16.50;101060.00;;;;5074691;28;20606;-73
2022/10/23 00:14:42;;;;;;;0.30;0.30;;;15.40;99.90;16.30;101071.00;;;;5074634;28;20200;-73
2022/10/23 00:17:23;;;;;;;0.50;0.50;;;15.20;99.90;16.20;101055.00;;;;5074854;28;20193;-74
2022/10/23 00:19:58;;;;;;;0.97;0.97;;;15.20;99.90;16.30;101054.00;;;;5074132;28;20162;-74
2022/10/23 00:22:30;;;;;;;0.30;0.30;;;15.20;99.90;16.10;101064.00;;;;5074955;28;20302;-75
2022/10/23 00:25:12;;;;;;;1.03;1.03;;;15.10;99.90;16.60;101064.00;;;;5074166;28;20180;-75
2022/10/23 00:28:07;;;;;;;0.30;0.30;;;15.20;99.90;16.60;101061.00;;;;5074129;28;20599;-75
2022/10/23 00:30:53;;;;;;;0.30;0.30;;;15.20;99.90;16.80;101043.00;;;;5084546;28;20196;-74
2022/10/23 00:33:46;;;;;;;0.30;0.30;;;15.30;99.90;16.60;101047.00;;;;5073488;28;20248;-74
2022/10/23 00:36:38;;;;;;;0.80;0.80;;;15.20;99.90;16.90;101013.00;;;;5032867;28;20206;-74
2022/10/23 00:39:36;;;;;;;0.30;0.30;;;15.40;99.90;16.80;101039.00;;;;5057654;28;20188;-74
2022/10/23 00:42:25;;;;;;;0.30;0.30;;;15.40;99.90;16.90;101046.00;;;;5085116;28;20213;-73
2022/10/23 00:45:35;;;;;;;0.30;0.30;;;15.50;99.90;16.70;101044.00;;;;5016683;28;20660;-74
2022/10/23 00:48:27;;;;;;;0.30;0.30;;;15.40;99.90;16.60;101036.00;;;;5073449;28;20175;-74
2022/10/23 00:51:07;;;;;;;0.33;0.33;;;15.40;99.90;16.80;100981.00;;;;5082368;28;20207;-74
2022/10/23 00:53:56;;;;;;;0.30;0.30;;;15.30;99.90;16.60;101029.00;;;;5073471;28;20178;-74
2022/10/23 00:56:40;;;;;;;0.30;0.30;;;15.40;99.90;16.80;101019.00;;;;5055813;28;20195;-74
2022/10/23 00:59:35;;;;;;;0.27;0.27;;;15.50;99.90;16.70;101031.00;;;;5073253;28;20192;-74
2022/10/23 01:02:27;;;;;;;0.43;0.43;;;15.40;99.90;16.90;101030.00;;;;5032248;28;20235;-74
2022/10/23 01:05:00;;;;;;;1.03;1.03;;;15.50;99.90;16.70;101021.00;;;;4941185;28;20199;-74
2022/10/23 01:07:58;;;;;;;0.40;0.40;;;15.40;99.90;16.60;101030.00;;;;5056418;28;20202;-73
2022/10/23 01:10:47;;;;;;;0.80;0.80;;;15.40;99.90;16.50;100989.00;;;;5089818;28;20172;-73
2022/10/23 01:13:36;;;;;;;0.30;0.30;;;15.40;99.90;16.30;101010.00;;;;5072921;28;20212;-73
2022/10/23 01:16:25;;;;;;;0.60;0.60;;;15.30;99.90;16.50;101009.00;;;;5073297;28;20184;-74
2022/10/23 01:19:19;;;;;;;0.30;0.30;;;15.40;99.90;16.30;101022.00;;;;5072661;28;20185;-73
2022/10/23 01:22:47;;;;;;;0.50;0.50;;;15.10;99.90;16.70;101020.00;;;;5072938;28;20194;-74
2022/10/23 01:25:40;;;;;;;0.30;0.30;;;15.30;99.90;17.10;100967.00;;;;5032099;28;20233;-74
2022/10/23 01:28:36;;;;;;;0.30;0.30;;;15.50;99.90;16.40;100997.00;;;;5015182;28;20194;-74
2022/10/23 01:31:34;;;;;;;1.03;1.00;;;15.40;99.90;16.20;100978.00;;;;5013343;28;20595;-74
2022/10/23 01:34:29;;;;;;;0.40;0.40;;;15.20;99.90;16.50;101010.00;;;;5008247;28;20193;-74
2022/10/23 01:37:19;;;;;;;0.33;0.33;;;15.20;99.90;16.50;101005.00;;;;5072456;28;20271;-74
2022/10/23 01:40:03;;;;;;;1.50;1.40;;;15.30;99.90;16.50;100949.00;;;;5072382;28;20609;-74
2022/10/23 01:42:43;;;;;;;0.30;0.30;;;15.40;99.90;16.40;100987.00;;;;5072595;28;20211;-74
2022/10/23 01:45:30;;;;;;;2.10;1.90;;;15.30;99.90;16.00;100953.00;;;;5072420;28;20180;-74
2022/10/23 01:48:23;;;;;;;0.37;0.37;;;15.10;99.90;16.30;100977.00;;;;5072310;28;20189;-74
2022/10/23 01:51:04;;;;;;;0.30;0.30;;;15.20;99.90;16.90;100960.00;;;;5071922;28;20196;-74
2022/10/23 01:53:55;;;;;;;0.30;0.30;;;15.40;99.90;16.40;100983.00;;;;5072888;28;20231;-74
2022/10/23 01:56:32;;;;;;;14.20;2.43;;;15.30;99.90;16.40;100923.00;;;;5072358;28;20271;-74
2022/10/23 01:59:30;;;;;;;0.40;0.40;;;15.20;99.90;16.40;100935.00;;;;5072123;28;20593;-74
2022/10/23 02:02:13;;;;;;;2.97;2.00;;;15.20;99.90;16.20;100968.00;;;;5083772;28;20219;-74
2022/10/23 02:04:59;;;;;;;0.50;0.50;;;15.20;99.90;16.20;100973.00;;;;5071762;28;20188;-74
2022/10/23 02:07:41;;;;;;;0.33;0.33;;;15.10;99.90;16.50;100969.00;;;;5072358;28;20191;-74
2022/10/23 02:10:53;;;;;;;0.40;0.40;;;15.20;99.90;16.70;100956.00;;;;5071286;28;20184;-74
2022/10/23 02:13:51;;;;;;;0.70;0.70;;;15.30;99.90;16.50;100950.00;;;;5072333;28;20186;-73
2022/10/23 02:16:56;;;;;;;0.53;0.53;;;15.30;99.90;16.30;100922.00;;;;5069883;28;20198;-74
2022/10/23 02:19:47;;;;;;;0.30;0.30;;;15.10;99.90;16.40;100933.00;;;;5071030;28;20621;-74
2022/10/23 02:22:25;;;;;;;0.30;0.30;;;15.10;99.90;16.50;100933.00;;;;5055637;28;20214;-74
2022/10/23 02:29:06;;;;;;;0.40;0.40;;;15.10;99.90;16.30;100923.00;;;;5086329;28;20188;-75
2022/10/23 02:32:03;;;;;;;0.40;0.40;;;15.00;99.90;15.70;100918.00;;;;5055037;28;20582;-75
2022/10/23 02:35:15;;;;;;;1.17;0.83;;;14.90;99.90;15.90;100928.00;;;;5071840;28;20180;-75
2022/10/23 02:38:33;;;;;;;0.50;0.50;;;14.90;99.90;16.00;100929.00;;;;5055846;28;20539;-75
2022/10/23 02:41:38;;;;;;;0.50;0.50;;;14.90;99.90;16.30;100910.00;;;;5055137;28;20187;-75
2022/10/23 02:44:45;;;;;;;1.17;0.73;;;15.10;99.90;16.20;100923.00;;;;5072997;28;20210;-75
2022/10/23 02:47:51;;;;;;;0.30;0.30;;;15.10;99.90;16.10;100872.00;;;;5071274;28;20183;-76
2022/10/23 02:51:08;;;;;;;0.30;0.30;;;15.10;99.90;16.50;100913.00;;;;5071745;28;20187;-76
2022/10/23 02:54:04;;;;;;;0.30;0.30;;;15.10;99.90;16.40;100900.00;;;;5071821;28;20179;-75
2022/10/23 02:57:02;;;;;;;0.30;0.30;;;15.10;99.90;16.70;100897.00;;;;5071550;28;20631;-75
2022/10/23 03:00:03;;;;;;;0.50;0.50;;;15.30;99.90;16.20;100901.00;;;;5069286;28;20640;-75
2022/10/23 03:03:24;;;;;;;0.30;0.30;;;15.20;99.90;16.20;100891.00;;;;5054767;28;20659;-75
2022/10/23 03:06:10;;;;;;;0.30;0.30;;;15.20;99.90;16.50;100892.00;;;;5071531;28;20192;-73
2022/10/23 03:10:03;;;;;;;0.67;0.67;;;15.20;99.90;16.70;100885.00;;;;5055103;28;20179;-73
2022/10/23 03:13:22;;;;;;;1.60;1.50;;;15.40;99.90;16.60;100869.00;;;;5070760;28;20233;-73
2022/10/23 03:16:46;;;;;;;1.10;1.10;;;15.40;99.90;16.20;100861.00;;;;5054843;28;20333;-73
2022/10/23 03:20:31;;;;;;;0.30;0.30;;;15.30;99.90;16.20;100856.00;;;;5073377;28;20272;-73
2022/10/23 03:23:49;;;;;;;0.93;0.77;;;15.20;99.90;16.10;100851.00;;;;5060803;28;20199;-73
2022/10/23 03:26:50;;;;;;;0.30;0.30;;;15.00;99.90;16.20;100856.00;;;;5075278;28;20170;-73
2022/10/23 03:29:58;;;;;;;0.30;0.30;;;15.10;99.90;16.20;100855.00;;;;5075699;28;20203;-73
2022/10/23 03:33:01;;;;;;;0.30;0.30;;;15.10;99.90;16.30;100801.00;;;;5074654;28;20215;-73
2022/10/23 03:36:05;;;;;;;0.60;0.60;;;15.20;99.90;16.30;100792.00;;;;5076232;28;20218;-73
2022/10/23 03:39:11;;;;;;;0.97;0.60;;;15.20;99.90;16.50;100774.00;;;;5076284;28;20232;-73
2022/10/23 03:42:22;;;;;;;0.83;0.83;;;15.30;99.90;16.70;100825.00;;;;5074738;28;20198;-73
2022/10/23 03:45:39;;;;;;;0.43;0.43;;;15.30;99.90;16.40;100814.00;;;;5046766;28;20210;-72
2022/10/23 03:48:25;;;;;;;0.30;0.30;;;15.20;99.90;16.30;100811.00;;;;5057932;28;20523;-72
2022/10/23 03:51:15;;;;;;;0.30;0.30;;;15.20;99.90;16.00;100810.00;;;;5074467;28;20190;-73
2022/10/23 03:54:07;;;;;;;0.20;0.20;;;15.10;99.90;16.30;100767.00;;;;5074932;28;20167;-73
2022/10/23 03:56:59;;;;;;;0.30;0.30;;;15.20;99.90;16.20;100813.00;;;;5074588;28;20648;-74
2022/10/23 04:00:20;;;;;;;0.30;0.30;;;15.10;99.90;16.00;100823.00;;;;5058352;28;20623;-74
2022/10/23 04:03:01;;;;;;;0.30;0.30;;;15.00;99.90;16.10;100812.00;;;;5074131;28;20222;-75
2022/10/23 04:05:40;;;;;;;0.30;0.30;;;14.90;99.90;16.00;100790.00;;;;5074195;28;20185;-75
2022/10/23 04:08:16;;;;;;;0.30;0.30;;;15.00;99.90;16.10;100810.00;;;;5075620;28;20190;-75
2022/10/23 04:10:48;;;;;;;0.30;0.30;;;15.00;99.90;15.90;100805.00;;;;5075689;28;20178;-74
2022/10/23 04:13:17;;;;;;;0.30;0.30;;;14.90;99.90;16.10;100795.00;;;;5074179;28;20191;-75
2022/10/23 04:15:53;;;;;;;0.40;0.40;;;15.00;99.90;15.80;100795.00;;;;5074194;28;20627;-74
2022/10/23 04:18:29;;;;;;;0.73;0.73;;;14.80;99.90;16.00;100800.00;;;;5074323;28;20182;-75
2022/10/23 04:20:57;;;;;;;0.30;0.30;;;14.90;99.90;15.90;100771.00;;;;5074136;28;20576;-75
2022/10/23 04:23:28;;;;;;;0.40;0.40;;;14.90;99.90;15.70;100801.00;;;;5073953;28;20215;-75
2022/10/23 04:26:00;;;;;;;0.60;0.60;;;14.80;99.90;15.90;100785.00;;;;5073990;28;20615;-75
2022/10/23 04:28:31;;;;;;;0.30;0.30;;;14.80;99.90;16.20;100797.00;;;;5075136;28;20176;-75
2022/10/23 04:31:03;;;;;;;0.33;0.33;;;15.00;99.90;15.60;100790.00;;;;5056986;28;20189;-75
2022/10/23 04:33:35;;;;;;;0.40;0.40;;;14.80;99.90;16.10;100789.00;;;;5057412;28;20192;-75
2022/10/23 04:36:03;;;;;;;0.40;0.40;;;14.90;99.90;16.20;100763.00;;;;5074913;28;20191;-75
2022/10/23 04:38:32;;;;;;;0.30;0.30;;;14.90;99.90;15.90;100728.00;;;;5073577;28;20195;-75
2022/10/23 04:41:00;;;;;;;0.40;0.40;;;14.90;99.90;16.20;100679.00;;;;5073703;28;20165;-75
2022/10/23 04:43:37;;;;;;;0.30;0.30;;;14.90;99.90;15.80;100761.00;;;;5073629;28;20211;-75
2022/10/23 04:46:08;;;;;;;0.40;0.40;;;14.90;99.90;15.80;100749.00;;;;5073805;28;20188;-75
2022/10/23 04:48:42;;;;;;;0.83;0.67;;;14.80;99.90;15.80;100743.00;;;;5073942;28;20184;-75
2022/10/23 04:51:19;;;;;;;2.00;0.70;;;14.80;99.90;15.80;100768.00;;;;5073418;28;20187;-74
2022/10/23 04:53:56;;;;;;;1.07;0.77;;;14.80;99.90;15.80;100785.00;;;;5052712;28;20183;-74
2022/10/23 04:56:28;;;;;;;1.03;0.60;;;14.80;99.90;16.00;100723.00;;;;5073770;28;20308;-74
2022/10/23 04:59:02;;;;;;;0.90;0.90;;;14.90;99.90;16.00;100783.00;;;;5073228;28;20182;-73
2022/10/23 05:01:37;;;;;;;0.60;0.50;;;14.90;99.90;16.00;100771.00;;;;5089875;28;20223;-73
2022/10/23 05:04:06;;;;;;;1.93;0.53;;;14.90;99.90;16.00;100774.00;;;;5089843;28;20189;-73
2022/10/23 05:06:39;;;;;;;0.30;0.30;;;14.80;99.90;16.50;100740.00;;;;5073499;28;20234;-73
2022/10/23 05:09:15;;;;;;;0.30;0.30;;;15.00;99.90;16.40;100757.00;;;;5073141;28;20511;-72
2022/10/23 05:11:55;;;;;;;1.13;0.93;;;15.10;99.90;16.30;100721.00;;;;5080206;28;20210;-73
2022/10/23 05:14:50;;;;;;;0.63;0.60;;;15.20;99.90;16.20;100761.00;;;;5052960;28;20179;-73
2022/10/23 05:17:33;;;;;;;0.67;0.67;;;15.10;99.90;16.40;100710.00;;;;5069610;28;20201;-74
2022/10/23 05:20:12;;;;;;;0.70;0.70;;;15.20;99.90;16.10;100763.00;;;;5052884;28;20654;-75
2022/10/23 05:22:51;;;;;;;1.80;1.53;;;15.10;99.90;16.10;100749.00;;;;5069077;28;20220;-74
2022/10/23 05:25:29;;;;;;;0.67;0.50;;;15.10;99.90;16.20;100750.00;;;;5069591;28;20227;-74
2022/10/23 05:28:06;;;;;;;0.40;0.30;;;15.00;99.90;16.30;100744.00;;;;5069395;28;20175;-73
2022/10/23 05:30:41;;;;;;;0.73;0.73;;;15.10;99.90;16.20;100742.00;;;;5069311;28;20191;-74
2022/10/23 05:33:19;;;;;;;0.30;0.30;;;15.10;99.90;16.50;100743.00;;;;5069085;28;20202;-74
2022/10/23 05:35:51;;;;;;;0.30;0.30;;;15.20;99.90;16.00;100741.00;;;;5069074;28;20191;-74
2022/10/23 05:38:28;;;;;;;1.10;1.00;;;15.00;99.90;16.10;100699.00;;;;5069417;28;20285;-74
2022/10/23 05:41:05;;;;;;;0.50;0.50;;;15.00;99.90;16.00;100721.00;;;;5068437;28;20184;-74
2022/10/23 05:43:41;;;;;;;0.40;0.40;;;15.00;99.90;15.90;100708.00;;;;5068866;28;20224;-72
2022/10/23 05:46:16;;;;;;;0.30;0.30;;;15.00;99.90;16.00;100713.00;;;;5069105;28;20210;-73
2022/10/23 05:49:02;;;;;;;0.63;0.63;;;14.90;99.90;16.10;100705.00;;;;5069155;28;20194;-74
2022/10/23 05:52:08;;;;;;;0.30;0.30;;;14.90;99.90;15.80;100720.00;;;;5052642;28;20184;-74
2022/10/23 05:54:42;;;;;;;0.70;0.60;;;14.80;99.90;15.70;100718.00;;;;5052442;28;20666;-75
2022/10/23 05:57:14;;;;;;;0.40;0.40;;;14.70;99.90;16.30;100685.00;;;;5068678;28;20184;-75
2022/10/23 05:59:49;;;;;;;0.30;0.30;;;15.00;99.90;16.50;100660.00;;;;5069084;28;20183;-75
2022/10/23 06:02:38;;;;;;;0.30;0.30;;;15.10;99.90;16.20;100694.00;;;;5068791;28;20254;-75
2022/10/23 06:05:15;;;;;;;0.30;0.30;;;15.00;99.90;16.20;100686.00;;;;5052010;28;20180;-75
2022/10/23 06:07:58;;;;;;;0.30;0.30;;;15.10;99.90;16.40;100679.00;;;;5068720;28;20175;-75
2022/10/23 06:10:36;;;;;;;4.27;1.37;;;15.10;99.90;16.30;100671.00;;;;5068532;28;20241;-75
2022/10/23 06:13:19;;;;;;;0.30;0.30;;;15.20;99.90;16.50;100627.00;;;;5068843;28;20199;-76
2022/10/23 06:15:55;;;;;;;0.30;0.30;;;15.20;99.90;16.30;100626.00;;;;5068467;28;20642;-75
2022/10/23 06:18:32;;;;;;;0.30;0.30;;;15.20;99.90;16.70;100663.00;;;;5068714;28;20511;-75
2022/10/23 06:21:13;;;;;;;2.40;0.93;;;15.30;99.90;16.40;100658.00;;;;5068404;28;20190;-75
2022/10/23 06:23:56;;;;;;;0.50;0.50;;;15.30;99.90;16.60;100668.00;;;;5078451;28;20221;-75
2022/10/23 06:26:45;;;;;;;0.57;0.57;;;15.40;99.90;16.60;100657.00;;;;5071536;28;20550;-75
2022/10/23 06:29:25;;;;;;;0.40;0.40;;;15.30;99.90;16.20;100649.00;;;;5085445;28;20281;-75
2022/10/23 06:32:05;;;;;;;0.20;0.20;;;15.20;99.90;16.70;100656.00;;;;5088664;28;20202;-74
2022/10/23 06:34:43;;;;;;;0.63;0.60;;;15.30;99.90;16.90;100634.00;;;;5071846;28;20638;-76
2022/10/23 06:37:32;;;;;;;0.30;0.30;;;15.40;99.90;16.60;100642.00;;;;5071669;28;20219;-75
2022/10/23 06:40:07;;;;;;;0.30;0.30;;;15.50;99.90;16.60;100642.00;;;;5090628;28;20184;-74
2022/10/23 06:42:42;;;;;;;0.60;0.60;;;15.40;99.90;16.30;100660.00;;;;5055188;28;20215;-74
2022/10/23 06:45:32;;;;;;;0.53;0.53;;;15.40;99.90;16.10;100658.00;;;;5088489;28;20184;-73
2022/10/23 06:48:21;;;;;;;0.33;0.33;;;15.20;99.90;16.50;100672.00;;;;5072408;28;20187;-73
2022/10/23 06:51:02;;;;;;;0.70;0.70;;;15.30;99.90;16.20;100665.00;;;;5071689;28;20207;-73
2022/10/23 06:53:38;;;;;;;0.40;0.40;;;15.20;99.90;16.20;100664.00;;;;5072653;28;20251;-74
2022/10/23 06:56:08;;;;;;;0.30;0.30;;;15.20;99.90;16.00;100664.00;;;;5075364;28;20194;-74
2022/10/23 06:58:41;;;;;;;0.53;0.53;;;15.20;99.90;16.30;100660.00;;;;5075746;28;20211;-74
2022/10/23 07:01:18;;;;;;;0.30;0.30;;;15.30;99.90;16.10;100611.00;;;;5092549;28;20177;-74
2022/10/23 07:04:01;;;;;;;0.33;0.33;;;15.30;99.90;16.50;100632.00;;;;5092378;28;20318;-74
2022/10/23 07:06:37;;;;;;;2.53;0.90;;;15.40;99.90;16.40;100628.00;;;;5092095;28;20177;-72
2022/10/23 07:09:11;;;;;;;0.50;0.50;;;15.40;99.90;16.60;100636.00;;;;5075063;28;20184;-73
2022/10/23 07:11:48;;;;;;;0.40;0.40;;;15.50;99.90;16.20;100642.00;;;;5092033;28;20186;-72
2022/10/23 07:14:19;;;;;;;0.73;0.63;;;15.40;99.90;16.20;100605.00;;;;5076549;28;20167;-73
2022/10/23 07:17:05;;;;;;;1.47;1.07;;;15.40;99.90;16.40;100641.00;;;;5092716;28;20170;-72
2022/10/23 07:19:34;;;;;;;2.23;0.90;;;15.40;99.90;16.50;100633.00;;;;5075461;28;20650;-72
2022/10/23 07:22:11;;;;;;;0.50;0.50;;;15.40;99.90;16.60;100642.00;;;;5075172;28;20298;-70
2022/10/23 07:25:03;;;;;;;2.20;0.90;;;15.50;99.90;16.60;100608.00;;;;5092042;28;20181;-71
2022/10/23 07:27:46;;;;;;;0.40;0.40;;;15.60;99.90;16.50;100645.00;;;;5074923;28;20188;-71
2022/10/23 07:30:15;;;;;;;0.50;0.50;;;15.60;99.90;16.50;100641.00;;;;5075203;28;20189;-72
2022/10/23 07:32:42;;;;;;;0.50;0.50;;;15.60;99.90;16.30;100630.00;;;;5075283;28;20201;-71
2022/10/23 07:35:36;;;;;;;0.57;0.57;;;15.60;99.90;16.40;100583.00;;;;5091845;28;20178;-72
2022/10/23 07:38:05;;;;;;;0.30;0.30;;;15.60;99.90;16.40;100634.00;;;;5090681;28;20177;-71
2022/10/23 07:40:46;;;;;;;0.37;0.37;;;15.60;99.90;16.90;100593.00;;;;5091224;28;20214;-71
2022/10/23 07:43:19;;;;;;;0.60;0.60;;;15.70;99.90;17.00;100587.00;;;;5074496;28;20672;-71
2022/10/23 07:45:57;;;;;;;0.80;0.80;;;15.90;99.90;16.80;100620.00;;;;5076087;28;20185;-71
2022/10/23 07:48:31;;;;;;;0.33;0.33;;;15.90;99.90;16.70;100634.00;;;;5058298;28;20174;-71
2022/10/23 07:51:11;;;;;;;1.80;0.40;;;15.90;99.90;16.90;100639.00;;;;5058009;28;20191;-71
2022/10/23 07:54:05;;;;;;;0.63;0.43;;;15.90;99.90;16.60;100578.00;;;;5071123;28;20200;-71
2022/10/23 07:56:51;;;;;;;1.03;1.03;;;15.80;99.90;16.60;100636.00;;;;5054734;28;20181;-71
2022/10/23 07:59:30;;;;;;;0.20;0.20;;;15.80;99.90;16.70;100643.00;;;;5054648;28;20248;-70
2022/10/23 08:02:32;;;;;;;0.27;0.27;;;15.80;99.90;16.30;100643.00;;;;5054932;28;20213;-70
2022/10/23 08:05:28;;;;;;;0.53;0.53;;;15.80;99.90;16.60;100607.00;;;;5053541;28;20201;-70
2022/10/23 08:08:09;;;;;;;0.30;0.30;;;15.80;99.90;16.50;100624.00;;;;5054099;28;20183;-70
2022/10/23 08:10:58;;;;;;;0.30;0.30;;;15.80;99.90;17.10;100637.00;;;;5071720;28;20190;-70
2022/10/23 08:13:40;;;;;;;0.50;0.50;;;15.90;99.90;16.70;100631.00;;;;5073856;28;20229;-70
2022/10/23 08:16:14;;;;;;;1.33;0.83;;;15.90;99.90;16.90;100615.00;;;;5074530;28;20161;-70
2022/10/23 08:19:03;;;;;;;2.53;1.33;;;16.00;99.90;17.30;100607.00;;;;5074105;28;20204;-71
2022/10/23 08:21:32;;;;;;;0.80;0.80;;;16.20;99.90;17.50;100478.00;;;;5090166;28;20195;-70
2022/10/23 08:24:02;;;;;;;0.50;0.50;;;16.40;99.90;17.40;100600.00;;;;5073542;28;20250;-70
2022/10/23 08:26:28;;;;;;;0.40;0.40;;;16.40;99.90;17.60;100518.00;;;;5075529;28;20191;-70
2022/10/23 08:28:59;;;;;;;0.20;0.20;;;16.40;99.90;17.60;100613.00;;;;5074178;28;20238;-66
2022/10/23 08:31:26;;;;;;;0.30;0.30;;;16.60;99.90;17.40;100602.00;;;;5090171;28;20264;-72
2022/10/23 08:34:17;;;;;;;6.53;0.67;;;16.50;99.90;17.40;100581.00;;;;5070367;28;20182;-74
2022/10/23 08:36:52;;;;;;;0.30;0.30;;;16.50;99.90;17.60;100544.00;;;;5054920;28;20640;-73
2022/10/23 08:39:25;;;;;;;0.57;0.57;;;16.40;99.90;17.50;100569.00;;;;5070463;28;20195;-73
2022/10/23 08:41:56;;;;;;;0.50;0.50;;;16.50;99.90;17.60;100551.00;;;;5070430;28;20194;-73
2022/10/23 08:48:30;;;;;;;0.20;0.20;;;16.40;99.90;17.60;100553.00;;;;5052577;28;20642;-73
2022/10/23 08:51:28;;;;;;;0.43;0.43;;;16.50;99.90;17.40;100556.00;;;;5052416;28;20737;-73
2022/10/23 08:54:19;;;;;;;0.40;0.40;;;16.50;99.90;17.70;100563.00;;;;5053459;28;20203;-62
2022/10/23 08:56:56;;;;;;;0.30;0.30;;;16.60;99.90;18.20;100550.00;;;;5070766;28;20228;-78
2022/10/23 09:03:18;;;;;;;0.37;0.37;;;16.90;99.90;18.00;100543.00;;;;5048758;28;20274;-78
2022/10/23 09:06:11;;;;;;;0.27;0.27;;;16.90;99.90;18.00;100550.00;;;;5035380;28;20280;-78
2022/10/23 09:13:01;;;;;;;0.20;0.20;;;17.10;99.90;18.30;100525.00;;;;5072480;28;20221;-77
2022/10/23 09:16:22;;;;;;;0.50;0.50;;;17.30;99.90;18.40;100532.00;;;;5055463;28;20195;-78
2022/10/23 09:19:01;;;;;;;0.20;0.20;;;17.20;99.90;18.80;100529.00;;;;5071531;28;20387;-76
2022/10/23 09:21:27;;;;;;;0.73;0.73;;;17.40;99.90;18.50;100512.00;;;;5072237;28;20196;-77
2022/10/23 09:24:01;;;;;;;0.47;0.47;;;17.50;99.90;18.30;100495.00;;;;5072136;28;20180;-78
2022/10/23 09:26:30;;;;;;;0.20;0.20;;;17.40;99.90;18.70;100489.00;;;;5072162;28;20253;-78
2022/10/23 09:29:27;;;;;;;0.20;0.20;;;17.50;99.90;19.00;100497.00;;;;5071841;28;20190;-80
2022/10/23 09:32:05;;;;;;;0.20;0.20;;;17.80;99.90;18.90;100499.00;;;;5064522;28;20250;-79
2022/10/23 09:34:34;;;;;;;0.47;0.47;;;17.70;99.90;18.70;100477.00;;;;5072441;28;20531;-80
2022/10/23 09:37:21;;;;;;;0.20;0.20;;;17.60;99.90;18.50;100499.00;;;;5072565;28;20187;-79
2022/10/23 09:40:16;;;;;;;0.20;0.20;;;17.50;99.90;18.80;100461.00;;;;5072803;28;20177;-79
2022/10/23 09:43:20;;;;;;;1.50;1.27;;;17.60;99.90;18.60;100501.00;;;;5056457;28;20269;-80
2022/10/23 09:46:01;;;;;;;0.20;0.20;;;17.50;99.90;18.20;100470.00;;;;5072659;28;20576;-80
2022/10/23 09:48:37;;;;;;;0.87;0.40;;;17.40;99.90;18.40;100473.00;;;;5072230;28;20182;-80
2022/10/23 09:51:18;;;;;;;0.47;0.47;;;17.30;99.90;18.40;100487.00;;;;5072395;28;20187;-80
2022/10/23 09:53:59;;;;;;;0.73;0.50;;;17.30;99.90;18.50;100477.00;;;;5073023;28;20299;-80
2022/10/23 09:56:39;;;;;;;0.30;0.30;;;17.40;99.90;18.20;100482.00;;;;5072252;28;20183;-80
2022/10/23 09:59:26;;;;;;;0.20;0.20;;;17.40;99.90;18.70;100461.00;;;;5072506;28;20645;-80
2022/10/23 10:02:34;;;;;;;0.30;0.30;;;17.50;99.90;18.80;100430.00;;;;5072302;28;20211;-81
2022/10/23 10:05:36;;;;;;;0.30;0.30;;;17.50;99.90;18.60;100455.00;;;;5055902;28;20180;-81
2022/10/23 10:08:20;;;;;;;0.20;0.20;;;17.50;99.90;18.30;100465.00;;;;5072495;28;20199;-80
2022/10/23 10:11:19;;;;;;;0.30;0.30;;;17.30;99.90;18.50;100454.00;;;;5072258;28;20184;-81
2022/10/23 10:14:25;;;;;;;3.10;0.90;;;17.40;99.90;18.40;100447.00;;;;5072265;28;20199;-80
2022/10/23 10:17:03;;;;;;;2.90;2.10;;;17.30;99.90;18.40;100456.00;;;;5073381;28;20206;-80
2022/10/23 10:20:14;;;;;;;0.93;0.70;;;17.40;99.90;18.80;100423.00;;;;5088944;28;20194;-81
2022/10/23 10:33:53;;;;;;;1.73;1.60;;;17.00;99.90;18.00;100437.00;;;;5126891;27;20545;-80
2022/10/23 10:36:49;;;;;;;1.80;0.80;;;17.20;99.90;18.50;100444.00;;;;5106565;28;20535;-81
2022/10/23 10:39:47;;;;;;;0.97;0.73;;;17.40;99.90;18.60;100427.00;;;;5106802;28;20164;-81
2022/10/23 10:42:59;;;;;;;0.52;0.52;;;17.70;99.90;19.10;100429.00;;;;5088874;28;20187;-81
2022/10/23 10:45:32;;;;;;;0.30;0.30;;;17.90;99.90;19.10;100427.00;;;;5085686;28;20181;-81
2022/10/23 10:48:57;;;;;;;0.70;0.70;;;18.00;99.90;19.20;100419.00;;;;5085768;28;20640;-81
2022/10/23 10:51:32;;;;;;;0.73;0.57;;;18.20;99.90;19.30;100422.00;;;;5072338;28;20219;-81
2022/10/23 10:54:36;;;;;;;0.38;0.38;;;18.20;99.90;19.40;100415.00;;;;5106191;28;20187;-81
2022/10/23 10:57:38;;;;;;;5.13;0.98;;;18.30;99.90;19.40;100368.00;;;;5069131;28;20181;-80
2022/10/23 11:00:18;;;;;;;0.70;0.70;;;18.40;99.90;19.30;100401.00;;;;5069110;28;20181;-81
2022/10/23 11:02:56;;;;;;;2.25;2.05;;;18.40;99.90;19.70;100378.00;;;;5068548;28;20696;-81
2022/10/23 11:05:58;;;;;;;0.30;0.30;;;18.50;99.90;19.40;100396.00;;;;5068740;28;20174;-81
2022/10/23 11:08:44;;;;;;;0.30;0.30;;;18.50;99.90;19.50;100394.00;;;;5076268;28;20647;-81
2022/10/23 11:11:19;;;;;;;0.90;0.90;;;18.40;99.90;19.80;100364.00;;;;5068651;28;20182;-81
2022/10/23 11:13:52;;;;;;;1.42;0.63;;;18.60;99.90;19.30;100400.00;;;;5070284;28;20280;-80
2022/10/23 11:16:35;;;;;;;0.57;0.25;;;18.50;99.90;19.60;100394.00;;;;5084960;28;20190;-80
2022/10/23 11:19:07;;;;;;;0.47;0.47;;;18.50;99.90;19.50;100357.00;;;;5085057;28;20180;-80
2022/10/23 11:21:41;;;;;;;0.50;0.50;;;18.60;99.90;19.70;100393.00;;;;5069844;28;20189;-80
2022/10/23 11:24:30;;;;;;;0.20;0.20;;;18.60;99.90;19.60;100389.00;;;;5069729;28;20197;-81
2022/10/23 11:27:38;;;;;;;0.50;0.50;;;18.60;99.90;19.40;100337.00;;;;5069425;28;20598;-79
2022/10/23 11:30:38;;;;;;;3.72;2.00;;;18.50;99.90;19.40;100375.00;;;;5085092;28;20189;-81
2022/10/23 11:33:30;;;;;;;0.63;0.63;;;18.50;99.90;19.70;100371.00;;;;5086851;28;20246;-81
2022/10/23 11:36:16;;;;;;;1.08;0.68;;;18.60;99.90;19.50;100370.00;;;;5089837;28;20238;-81
2022/10/23 11:39:11;;;;;;;0.32;0.32;;;18.70;99.90;19.50;100340.00;;;;5089887;28;20180;-80
2022/10/23 11:42:09;;;;;;;0.30;0.30;;;18.70;99.90;20.10;100349.00;;;;5089121;28;20217;-80
2022/10/23 11:44:48;;;;;;;0.20;0.20;;;18.80;99.90;20.00;100337.00;;;;5075013;28;20189;-81
2022/10/23 11:47:32;;;;;;;1.08;1.00;;;19.00;99.90;20.70;100347.00;;;;5074534;28;20637;-80
2022/10/23 11:50:09;;;;;;;0.50;0.50;;;19.40;99.90;20.20;100341.00;;;;5076259;28;20177;-80
2022/10/23 11:52:53;;;;;;;2.70;0.77;;;19.30;99.90;20.40;100351.00;;;;5075916;28;20208;-80
2022/10/23 11:55:26;;;;;;;0.70;0.70;;;19.40;99.90;20.50;100359.00;;;;5074736;28;20173;-82
2022/10/23 11:58:30;;;;;;;0.40;0.40;;;19.60;99.90;20.10;100340.00;;;;5074359;28;20173;-81
2022/10/23 12:01:00;;;;;;;1.67;0.38;;;19.40;99.90;20.50;100349.00;;;;5075330;28;20184;-82
2022/10/23 12:04:12;;;;;;;2.00;1.13;;;19.50;99.90;20.30;100343.00;;;;5075642;28;20264;-82
2022/10/23 12:06:52;;;;;;;0.90;0.90;;;19.50;99.90;20.50;100338.00;;;;5033255;28;20195;-81
2022/10/23 12:13:37;;;;;;;0.90;0.90;;;19.60;99.90;20.90;100334.00;;;;5054005;28;20297;-79
2022/10/23 12:16:26;;;;;;;1.45;1.23;;;19.70;99.90;20.80;100343.00;;;;5055483;28;20174;-80
2022/10/23 12:18:59;;;;;;;1.27;1.15;;;19.70;99.90;20.80;100330.00;;;;5069603;28;20280;-80
2022/10/23 12:21:41;;;;;;;0.47;0.47;;;19.90;99.90;21.10;100310.00;;;;5070530;28;20213;-81
2022/10/23 12:24:13;;;;;;;0.30;0.30;;;20.00;99.90;20.90;100310.00;;;;5070448;28;20193;-71
2022/10/23 12:27:25;;;;;;;0.65;0.65;;;20.10;99.90;21.10;100295.00;;;;5055208;28;20178;-78
2022/10/23 12:30:14;;;;;;;0.90;0.65;;;20.10;99.90;21.20;100311.00;;;;5070670;28;20217;-78
2022/10/23 12:33:01;;;;;;;0.47;0.47;;;20.20;99.90;21.20;100311.00;;;;5070546;28;20562;-78
2022/10/23 12:36:27;;;;;;;0.88;0.88;;;20.20;99.90;21.30;100296.00;;;;5070499;28;20189;-78
2022/10/23 12:39:31;;;;;;;0.28;0.28;;;20.20;99.90;21.20;100292.00;;;;5055508;28;20198;-79
2022/10/23 12:42:38;;;;;;;0.40;0.40;;;20.40;99.90;21.20;100264.00;;;;5090374;28;20190;-79